G. M. Dannevig — LINW — position and weather

sailwx.info

Track history (hours):
 
Tides and Currents Weather Stations Pressure Air Temp Water Temp Dewpoint Dewpoint Depression Visibility Wind Speed Wind Dir Waves Ship Positions

Oceanographic research ship G. M. Dannevig (Norway)

Detailed information on ship capabilities available from University of Delaware's Ocean Information Center.

Last reported at 2018-Feb-07 00:53 UTC. Time now 2018-Feb-25 09:36 UTC.
Position N 58°26' E 008°45'.
Warning: this ship's position is 18 days out of date.

Length 27 m; draft 0.35 m.

Type: Dredging. MMSI: 258513000.

Date/timePositionNaut miles runAvg speedWind from/ knotsBaromVisibWave heightAir tempDewpointWater temp
2018-Feb-07 00:53N 58°26' E 008°45'0 0.0
2018-Feb-06 23:34N 58°26' E 008°45'0 0.0
2018-Feb-06 23:26N 58°26' E 008°45'0 0.0
2018-Feb-06 10:15N 58°25' E 008°45'2 8.3
2018-Feb-06 10:00N 58°24' E 008°48'1 2.6
2018-Feb-06 09:30N 58°23' E 008°51'5 9.1
2018-Feb-06 09:00N 58°27' E 008°56'28 1.7
2018-Feb-05 16:31N 58°48' E 009°31'710.3
2018-Feb-05 15:48N 58°51' E 009°44'310.4
2018-Feb-05 15:30N 58°52' E 009°49'510.2
2018-Feb-05 15:00N 58°54' E 009°58'510.7
2018-Feb-05 14:30N 58°57' E 010°08'5 9.4
2018-Feb-05 14:00N 58°58' E 010°16'4 8.6
2018-Feb-05 13:30N 59°00' E 010°24'4 9.0
2018-Feb-05 13:00N 59°04' E 010°29'5 9.3
2018-Feb-05 12:30N 59°08' E 010°32'8 7.8
2018-Feb-05 11:30N 59°16' E 010°32'5 9.5
2018-Feb-05 11:00N 59°21' E 010°33'5 9.6
2018-Feb-05 10:30N 59°25' E 010°33'5 9.7
2018-Feb-05 10:00N 59°30' E 010°36'2 4.9
2018-Feb-05 09:30N 59°29' E 010°41'3 6.4
2018-Feb-05 09:00N 59°32' E 010°39'3 6.7
2018-Feb-05 08:30N 59°35' E 010°38'4 7.4
2018-Feb-05 08:00N 59°32' E 010°34'5 9.3
2018-Feb-05 07:31N 59°29' E 010°28'3 5.7
2018-Feb-05 07:00N 59°27' E 010°29'1 2.0
2018-Feb-05 06:30N 59°26' E 010°29'0 0.0
2018-Feb-05 05:30N 59°26' E 010°29'0 0.0
2018-Feb-05 05:00N 59°26' E 010°29'0 0.0
2018-Feb-05 04:30N 59°26' E 010°29'0 0.0
2018-Feb-05 04:00N 59°26' E 010°29'0 0.0
2018-Feb-05 03:30N 59°26' E 010°29'0 0.0
2018-Feb-05 03:00N 59°26' E 010°29'0 0.0
2018-Feb-05 02:30N 59°26' E 010°29'0 0.0
2018-Feb-05 02:00N 59°26' E 010°29'0 0.0
2018-Feb-05 01:30N 59°26' E 010°29'0 0.0
2018-Feb-05 01:00N 59°26' E 010°29'0 0.0
2018-Feb-05 00:30N 59°26' E 010°29'0 0.0
2018-Feb-05 00:00N 59°26' E 010°29'0 0.0
2018-Feb-04 23:30N 59°26' E 010°29'0 0.0
2018-Feb-04 23:00N 59°26' E 010°29'0 0.0
2018-Feb-04 22:30N 59°26' E 010°29'0 0.0
2018-Feb-04 22:00N 59°26' E 010°29'0 0.0
2018-Feb-04 21:30N 59°26' E 010°29'0 0.0
2018-Feb-04 21:00N 59°26' E 010°29'0 0.0
2018-Feb-04 20:00N 59°26' E 010°29'0 0.0
2018-Feb-04 19:30N 59°26' E 010°29'0 0.0
2018-Feb-04 19:00N 59°26' E 010°29'0 0.0
2018-Feb-04 18:30N 59°26' E 010°29'2 3.1
2018-Feb-04 18:00N 59°27' E 010°30'4 8.5
2018-Feb-04 17:30N 59°24' E 010°35'12 6.2
2018-Feb-04 15:30N 59°12' E 010°43'1 2.3
2018-Feb-04 15:00N 59°11' E 010°41'2 3.1
2018-Feb-04 14:30N 59°09' E 010°43'510.1
2018-Feb-04 14:00N 59°05' E 010°48'5 9.7
2018-Feb-04 13:30N 59°02' E 010°54'5 9.9
2018-Feb-04 13:00N 59°02' E 011°04'510.2
2018-Feb-04 12:30N 59°05' E 011°11'3 6.8
2018-Feb-04 12:00N 59°06' E 011°18'1 1.2
2018-Feb-04 11:30N 59°06' E 011°19'5 3.2
2018-Feb-04 10:00N 59°08' E 011°10'5 5.4
2018-Feb-04 09:00N 59°06' E 010°60'4 7.7
2018-Feb-04 08:30N 59°02' E 010°58'4 7.7
2018-Feb-04 08:01N 59°02' E 010°51'3 5.4
2018-Feb-04 07:30N 59°02' E 010°46'2 4.8
2018-Feb-04 07:00N 59°03' E 010°50'2 3.4
2018-Feb-04 06:30N 59°05' E 010°52'0 0.0
2018-Feb-04 06:01N 59°05' E 010°52'0 0.0
2018-Feb-04 05:28N 59°05' E 010°52'0 0.0
2018-Feb-04 05:00N 59°05' E 010°52'0 0.0
2018-Feb-04 04:29N 59°05' E 010°52'0 0.0
2018-Feb-04 04:00N 59°05' E 010°52'0 0.0
2018-Feb-04 03:30N 59°05' E 010°52'0 0.0
2018-Feb-04 03:00N 59°05' E 010°52'0 0.0
2018-Feb-04 02:30N 59°05' E 010°52'0 0.0
2018-Feb-04 02:00N 59°05' E 010°52'0 0.0
2018-Feb-04 01:29N 59°05' E 010°52'0 0.0
2018-Feb-04 00:58N 59°05' E 010°52'0 0.0
2018-Feb-04 00:30N 59°05' E 010°52'0 0.0
2018-Feb-04 00:00N 59°05' E 010°52'0 0.0
2018-Feb-03 23:30N 59°05' E 010°52'0 0.0
2018-Feb-03 23:00N 59°05' E 010°52'0 0.0
2018-Feb-03 22:30N 59°05' E 010°52'0 0.0
2018-Feb-03 22:00N 59°05' E 010°52'0 0.0
2018-Feb-03 21:30N 59°05' E 010°52'0 0.0
2018-Feb-03 21:00N 59°05' E 010°52'0 0.0
2018-Feb-03 20:30N 59°05' E 010°52'0 0.0
2018-Feb-03 20:00N 59°05' E 010°52'0 0.0
2018-Feb-03 18:30N 59°05' E 010°52'0 0.0
2018-Feb-03 18:01N 59°05' E 010°52'0 0.0
2018-Feb-03 17:30N 59°05' E 010°52'0 0.0
2018-Feb-03 17:00N 59°05' E 010°52'0 0.0
2018-Feb-03 16:00N 59°05' E 010°52'0 0.0
2018-Feb-03 15:30N 59°05' E 010°52'1 2.6
2018-Feb-03 15:00N 59°04' E 010°51'4 8.4
2018-Feb-03 14:30N 59°08' E 010°50'3 5.6
2018-Feb-03 14:00N 59°08' E 010°44'5 9.1
2018-Feb-03 13:30N 59°07' E 010°35'4 8.1
2018-Feb-03 13:01N 59°07' E 010°27'3 6.6
2018-Feb-03 12:31N 59°10' E 010°24'2 3.7
2018-Feb-03 12:00N 59°11' E 010°21'4 7.1
2018-Feb-03 11:30N 59°08' E 010°20'4 8.8
2018-Feb-03 11:00N 59°03' E 010°19'2 4.6
2018-Feb-03 10:30N 59°05' E 010°15'3 6.9
2018-Feb-03 10:00N 59°01' E 010°14'4 8.0
2018-Feb-03 09:30N 58°60' E 010°06'2 4.4
2018-Feb-03 09:00N 59°01' E 010°03'4 7.6
2018-Feb-03 08:30N 58°57' E 010°02'4 8.3
2018-Feb-03 08:00N 58°57' E 009°54'7 0.4
2018-Feb-02 14:28N 59°02' E 009°44'3 5.5
2018-Feb-02 13:58N 58°59' E 009°45'4 9.0
2018-Feb-02 13:30N 58°56' E 009°40'4 8.9
2018-Feb-02 13:00N 58°53' E 009°35'4 8.5
2018-Feb-02 12:30N 58°49' E 009°30'4 8.3
2018-Feb-02 12:00N 58°46' E 009°25'28 7.0
2018-Feb-02 07:58N 58°26' E 008°47'3 5.4
2018-Feb-02 07:30N 58°24' E 008°46'2 0.1
2018-Feb-01 18:42N 58°25' E 008°46'2 8.1
2018-Feb-01 18:30N 58°24' E 008°48'3 5.5
2018-Feb-01 17:58N 58°22' E 008°51'2 4.4
2018-Feb-01 17:30N 58°20' E 008°53'3 6.7
2018-Feb-01 17:00N 58°17' E 008°57'2 3.9
2018-Feb-01 16:30N 58°16' E 008°59'2 4.7
2018-Feb-01 16:00N 58°14' E 009°01'3 5.9
2018-Feb-01 15:30N 58°12' E 009°05'1 2.1
2018-Feb-01 15:00N 58°11' E 009°07'21 5.2
2018-Feb-01 10:57N 57°54' E 009°30'4 7.8
2018-Feb-01 10:29N 57°51' E 009°34'4 7.8
2018-Feb-01 09:59N 57°48' E 009°39'2 5.0
2018-Feb-01 09:30N 57°46' E 009°42'4 7.2
2018-Feb-01 08:59N 57°43' E 009°46'1 2.7
2018-Feb-01 08:29N 57°42' E 009°47'8 0.6
2018-Jan-31 18:42N 57°36' E 009°57'0 0.0
2018-Jan-31 18:30N 57°36' E 009°57'0 0.0
2018-Jan-31 18:00N 57°36' E 009°57'0 0.0
2018-Jan-31 17:29N 57°36' E 009°57'0 0.0
2018-Jan-31 16:59N 57°36' E 009°57'0 0.0
2018-Jan-31 16:30N 57°36' E 009°57'0 0.0
2018-Jan-31 15:58N 57°36' E 009°57'  
2018-Jan-29 00:12N 57°36' E 009°57'0 0.0
2018-Jan-28 23:57N 57°36' E 009°57'0 0.0
2018-Jan-28 23:29N 57°36' E 009°57'0 0.0
2018-Jan-28 23:00N 57°36' E 009°57'0 0.0
2018-Jan-28 22:29N 57°36' E 009°57'0 0.0
2018-Jan-28 21:59N 57°36' E 009°57'0 0.0
2018-Jan-28 21:29N 57°36' E 009°57'0 0.0
2018-Jan-28 20:58N 57°36' E 009°57'0 0.0
2018-Jan-28 20:29N 57°36' E 009°57'0 0.0
2018-Jan-28 02:25N 57°36' E 009°57'0 0.0
2018-Jan-28 01:58N 57°36' E 009°57'0 0.0
2018-Jan-28 01:30N 57°36' E 009°57'0 0.0
2018-Jan-28 00:59N 57°36' E 009°57'  
Track history (hours):
 
Tides and Currents Weather Stations Pressure Air Temp Water Temp Dewpoint Dewpoint Depression Visibility Wind Speed Wind Dir Waves Ship Positions

Oceanographic research ship G. M. Dannevig (Norway)

Detailed information on ship capabilities available from University of Delaware's Ocean Information Center.

Last reported at 2018-Feb-07 00:53 UTC. Time now 2018-Feb-25 09:36 UTC.
Position N 58°26' E 008°45'.
Warning: this ship's position is 18 days out of date.

Length 27 m; draft 0.35 m.

Type: Dredging. MMSI: 258513000.

Date/timePositionNaut miles runAvg speedWind from/ knotsBaromVisibWave heightAir tempDewpointWater temp
2018-Feb-07 00:53N 58°26' E 008°45'0 0.0
2018-Feb-06 23:34N 58°26' E 008°45'0 0.0
2018-Feb-06 23:26N 58°26' E 008°45'0 0.0
2018-Feb-06 10:15N 58°25' E 008°45'2 8.3
2018-Feb-06 10:00N 58°24' E 008°48'1 2.6
2018-Feb-06 09:30N 58°23' E 008°51'5 9.1
2018-Feb-06 09:00N 58°27' E 008°56'28 1.7
2018-Feb-05 16:31N 58°48' E 009°31'710.3
2018-Feb-05 15:48N 58°51' E 009°44'310.4
2018-Feb-05 15:30N 58°52' E 009°49'510.2
2018-Feb-05 15:00N 58°54' E 009°58'510.7
2018-Feb-05 14:30N 58°57' E 010°08'5 9.4
2018-Feb-05 14:00N 58°58' E 010°16'4 8.6
2018-Feb-05 13:30N 59°00' E 010°24'4 9.0
2018-Feb-05 13:00N 59°04' E 010°29'5 9.3
2018-Feb-05 12:30N 59°08' E 010°32'8 7.8
2018-Feb-05 11:30N 59°16' E 010°32'5 9.5
2018-Feb-05 11:00N 59°21' E 010°33'5 9.6
2018-Feb-05 10:30N 59°25' E 010°33'5 9.7
2018-Feb-05 10:00N 59°30' E 010°36'2 4.9
2018-Feb-05 09:30N 59°29' E 010°41'3 6.4
2018-Feb-05 09:00N 59°32' E 010°39'3 6.7
2018-Feb-05 08:30N 59°35' E 010°38'4 7.4
2018-Feb-05 08:00N 59°32' E 010°34'5 9.3
2018-Feb-05 07:31N 59°29' E 010°28'3 5.7
2018-Feb-05 07:00N 59°27' E 010°29'1 2.0
2018-Feb-05 06:30N 59°26' E 010°29'0 0.0
2018-Feb-05 05:30N 59°26' E 010°29'0 0.0
2018-Feb-05 05:00N 59°26' E 010°29'0 0.0
2018-Feb-05 04:30N 59°26' E 010°29'0 0.0
2018-Feb-05 04:00N 59°26' E 010°29'0 0.0
2018-Feb-05 03:30N 59°26' E 010°29'0 0.0
2018-Feb-05 03:00N 59°26' E 010°29'0 0.0
2018-Feb-05 02:30N 59°26' E 010°29'0 0.0
2018-Feb-05 02:00N 59°26' E 010°29'0 0.0
2018-Feb-05 01:30N 59°26' E 010°29'0 0.0
2018-Feb-05 01:00N 59°26' E 010°29'0 0.0
2018-Feb-05 00:30N 59°26' E 010°29'0 0.0
2018-Feb-05 00:00N 59°26' E 010°29'0 0.0
2018-Feb-04 23:30N 59°26' E 010°29'0 0.0
2018-Feb-04 23:00N 59°26' E 010°29'0 0.0
2018-Feb-04 22:30N 59°26' E 010°29'0 0.0
2018-Feb-04 22:00N 59°26' E 010°29'0 0.0
2018-Feb-04 21:30N 59°26' E 010°29'0 0.0
2018-Feb-04 21:00N 59°26' E 010°29'0 0.0
2018-Feb-04 20:00N 59°26' E 010°29'0 0.0
2018-Feb-04 19:30N 59°26' E 010°29'0 0.0
2018-Feb-04 19:00N 59°26' E 010°29'0 0.0
2018-Feb-04 18:30N 59°26' E 010°29'2 3.1
2018-Feb-04 18:00N 59°27' E 010°30'4 8.5
2018-Feb-04 17:30N 59°24' E 010°35'12 6.2
2018-Feb-04 15:30N 59°12' E 010°43'1 2.3
2018-Feb-04 15:00N 59°11' E 010°41'2 3.1
2018-Feb-04 14:30N 59°09' E 010°43'510.1
2018-Feb-04 14:00N 59°05' E 010°48'5 9.7
2018-Feb-04 13:30N 59°02' E 010°54'5 9.9
2018-Feb-04 13:00N 59°02' E 011°04'510.2
2018-Feb-04 12:30N 59°05' E 011°11'3 6.8
2018-Feb-04 12:00N 59°06' E 011°18'1 1.2
2018-Feb-04 11:30N 59°06' E 011°19'5 3.2
2018-Feb-04 10:00N 59°08' E 011°10'5 5.4
2018-Feb-04 09:00N 59°06' E 010°60'4 7.7
2018-Feb-04 08:30N 59°02' E 010°58'4 7.7
2018-Feb-04 08:01N 59°02' E 010°51'3 5.4
2018-Feb-04 07:30N 59°02' E 010°46'2 4.8
2018-Feb-04 07:00N 59°03' E 010°50'2 3.4
2018-Feb-04 06:30N 59°05' E 010°52'0 0.0
2018-Feb-04 06:01N 59°05' E 010°52'0 0.0
2018-Feb-04 05:28N 59°05' E 010°52'0 0.0
2018-Feb-04 05:00N 59°05' E 010°52'0 0.0
2018-Feb-04 04:29N 59°05' E 010°52'0 0.0
2018-Feb-04 04:00N 59°05' E 010°52'0 0.0
2018-Feb-04 03:30N 59°05' E 010°52'0 0.0
2018-Feb-04 03:00N 59°05' E 010°52'0 0.0
2018-Feb-04 02:30N 59°05' E 010°52'0 0.0
2018-Feb-04 02:00N 59°05' E 010°52'0 0.0
2018-Feb-04 01:29N 59°05' E 010°52'0 0.0
2018-Feb-04 00:58N 59°05' E 010°52'0 0.0
2018-Feb-04 00:30N 59°05' E 010°52'0 0.0
2018-Feb-04 00:00N 59°05' E 010°52'0 0.0
2018-Feb-03 23:30N 59°05' E 010°52'0 0.0
2018-Feb-03 23:00N 59°05' E 010°52'0 0.0
2018-Feb-03 22:30N 59°05' E 010°52'0 0.0
2018-Feb-03 22:00N 59°05' E 010°52'0 0.0
2018-Feb-03 21:30N 59°05' E 010°52'0 0.0
2018-Feb-03 21:00N 59°05' E 010°52'0 0.0
2018-Feb-03 20:30N 59°05' E 010°52'0 0.0
2018-Feb-03 20:00N 59°05' E 010°52'0 0.0
2018-Feb-03 18:30N 59°05' E 010°52'0 0.0
2018-Feb-03 18:01N 59°05' E 010°52'0 0.0
2018-Feb-03 17:30N 59°05' E 010°52'0 0.0
2018-Feb-03 17:00N 59°05' E 010°52'0 0.0
2018-Feb-03 16:00N 59°05' E 010°52'0 0.0
2018-Feb-03 15:30N 59°05' E 010°52'1 2.6
2018-Feb-03 15:00N 59°04' E 010°51'4 8.4
2018-Feb-03 14:30N 59°08' E 010°50'3 5.6
2018-Feb-03 14:00N 59°08' E 010°44'5 9.1
2018-Feb-03 13:30N 59°07' E 010°35'4 8.1
2018-Feb-03 13:01N 59°07' E 010°27'3 6.6
2018-Feb-03 12:31N 59°10' E 010°24'2 3.7
2018-Feb-03 12:00N 59°11' E 010°21'4 7.1
2018-Feb-03 11:30N 59°08' E 010°20'4 8.8
2018-Feb-03 11:00N 59°03' E 010°19'2 4.6
2018-Feb-03 10:30N 59°05' E 010°15'3 6.9
2018-Feb-03 10:00N 59°01' E 010°14'4 8.0
2018-Feb-03 09:30N 58°60' E 010°06'2 4.4
2018-Feb-03 09:00N 59°01' E 010°03'4 7.6
2018-Feb-03 08:30N 58°57' E 010°02'4 8.3
2018-Feb-03 08:00N 58°57' E 009°54'7 0.4
2018-Feb-02 14:28N 59°02' E 009°44'3 5.5
2018-Feb-02 13:58N 58°59' E 009°45'4 9.0
2018-Feb-02 13:30N 58°56' E 009°40'4 8.9
2018-Feb-02 13:00N 58°53' E 009°35'4 8.5
2018-Feb-02 12:30N 58°49' E 009°30'4 8.3
2018-Feb-02 12:00N 58°46' E 009°25'28 7.0
2018-Feb-02 07:58N 58°26' E 008°47'3 5.4
2018-Feb-02 07:30N 58°24' E 008°46'2 0.1
2018-Feb-01 18:42N 58°25' E 008°46'2 8.1
2018-Feb-01 18:30N 58°24' E 008°48'3 5.5
2018-Feb-01 17:58N 58°22' E 008°51'2 4.4
2018-Feb-01 17:30N 58°20' E 008°53'3 6.7
2018-Feb-01 17:00N 58°17' E 008°57'2 3.9
2018-Feb-01 16:30N 58°16' E 008°59'2 4.7
2018-Feb-01 16:00N 58°14' E 009°01'3 5.9
2018-Feb-01 15:30N 58°12' E 009°05'1 2.1
2018-Feb-01 15:00N 58°11' E 009°07'21 5.2
2018-Feb-01 10:57N 57°54' E 009°30'4 7.8
2018-Feb-01 10:29N 57°51' E 009°34'4 7.8
2018-Feb-01 09:59N 57°48' E 009°39'2 5.0
2018-Feb-01 09:30N 57°46' E 009°42'4 7.2
2018-Feb-01 08:59N 57°43' E 009°46'1 2.7
2018-Feb-01 08:29N 57°42' E 009°47'8 0.6
2018-Jan-31 18:42N 57°36' E 009°57'0 0.0
2018-Jan-31 18:30N 57°36' E 009°57'0 0.0
2018-Jan-31 18:00N 57°36' E 009°57'0 0.0
2018-Jan-31 17:29N 57°36' E 009°57'0 0.0
2018-Jan-31 16:59N 57°36' E 009°57'0 0.0
2018-Jan-31 16:30N 57°36' E 009°57'0 0.0
2018-Jan-31 15:58N 57°36' E 009°57'  
2018-Jan-29 00:12N 57°36' E 009°57'0 0.0
2018-Jan-28 23:57N 57°36' E 009°57'0 0.0
2018-Jan-28 23:29N 57°36' E 009°57'0 0.0
2018-Jan-28 23:00N 57°36' E 009°57'0 0.0
2018-Jan-28 22:29N 57°36' E 009°57'0 0.0
2018-Jan-28 21:59N 57°36' E 009°57'0 0.0
2018-Jan-28 21:29N 57°36' E 009°57'0 0.0
2018-Jan-28 20:58N 57°36' E 009°57'0 0.0
2018-Jan-28 20:29N 57°36' E 009°57'0 0.0
2018-Jan-28 02:25N 57°36' E 009°57'0 0.0
2018-Jan-28 01:58N 57°36' E 009°57'0 0.0
2018-Jan-28 01:30N 57°36' E 009°57'0 0.0
2018-Jan-28 00:59N 57°36' E 009°57'  

Dump ship's entire track history